sensor_id;sensor_type;location;lat;lon;timestamp;pressure;altitude;pressure_sealevel;temperature;humidity
28312;BME280;15572;48.810;9.148;2023-04-26T00:01:50;98181.22;;;6.55;100.00
28312;BME280;15572;48.810;9.148;2023-04-26T00:06:48;98181.22;;;6.47;100.00
28312;BME280;15572;48.810;9.148;2023-04-26T00:11:45;98187.31;;;6.41;100.00
28312;BME280;15572;48.810;9.148;2023-04-26T00:16:41;98190.28;;;6.54;100.00
28312;BME280;15572;48.810;9.148;2023-04-26T00:21:38;98188.44;;;6.54;100.00
28312;BME280;15572;48.810;9.148;2023-04-26T00:26:36;98182.09;;;6.39;100.00
28312;BME280;15572;48.810;9.148;2023-04-26T00:31:32;98188.16;;;6.25;100.00
28312;BME280;15572;48.810;9.148;2023-04-26T00:36:28;98186.47;;;6.08;100.00
28312;BME280;15572;48.810;9.148;2023-04-26T00:41:26;98190.19;;;6.07;100.00
28312;BME280;15572;48.810;9.148;2023-04-26T00:46:24;98185.13;;;5.96;100.00
28312;BME280;15572;48.810;9.148;2023-04-26T00:51:22;98189.66;;;6.11;100.00
28312;BME280;15572;48.810;9.148;2023-04-26T00:56:20;98194.03;;;6.04;100.00
28312;BME280;15572;48.810;9.148;2023-04-26T01:01:18;98188.97;;;6.09;100.00
28312;BME280;15572;48.810;9.148;2023-04-26T01:06:16;98189.16;;;6.08;100.00
28312;BME280;15572;48.810;9.148;2023-04-26T01:11:13;98196.03;;;6.10;100.00
28312;BME280;15572;48.810;9.148;2023-04-26T01:16:11;98195.22;;;6.02;100.00
28312;BME280;15572;48.810;9.148;2023-04-26T01:21:08;98197.03;;;5.93;100.00
28312;BME280;15572;48.810;9.148;2023-04-26T01:26:06;98195.50;;;5.82;100.00
28312;BME280;15572;48.810;9.148;2023-04-26T01:31:03;98193.16;;;5.79;100.00
28312;BME280;15572;48.810;9.148;2023-04-26T01:35:59;98186.94;;;5.71;100.00
28312;BME280;15572;48.810;9.148;2023-04-26T01:40:56;98197.69;;;5.71;100.00
28312;BME280;15572;48.810;9.148;2023-04-26T01:45:54;98193.81;;;5.73;100.00
28312;BME280;15572;48.810;9.148;2023-04-26T01:50:50;98192.66;;;5.76;100.00
28312;BME280;15572;48.810;9.148;2023-04-26T01:55:46;98195.06;;;5.87;100.00
28312;BME280;15572;48.810;9.148;2023-04-26T02:00:43;98188.47;;;5.81;100.00
28312;BME280;15572;48.810;9.148;2023-04-26T02:05:41;98189.97;;;5.84;100.00
28312;BME280;15572;48.810;9.148;2023-04-26T02:10:37;98187.28;;;5.76;100.00
28312;BME280;15572;48.810;9.148;2023-04-26T02:15:34;98181.91;;;5.76;100.00
28312;BME280;15572;48.810;9.148;2023-04-26T02:20:30;98182.06;;;5.74;100.00
28312;BME280;15572;48.810;9.148;2023-04-26T02:25:28;98175.34;;;5.70;100.00
28312;BME280;15572;48.810;9.148;2023-04-26T02:30:24;98183.94;;;5.82;100.00
28312;BME280;15572;48.810;9.148;2023-04-26T02:35:21;98191.66;;;5.77;100.00
28312;BME280;15572;48.810;9.148;2023-04-26T02:40:18;98190.47;;;5.71;100.00
28312;BME280;15572;48.810;9.148;2023-04-26T02:45:16;98184.53;;;5.51;100.00
28312;BME280;15572;48.810;9.148;2023-04-26T02:50:13;98186.56;;;5.58;100.00
28312;BME280;15572;48.810;9.148;2023-04-26T02:55:09;98185.06;;;5.55;100.00
28312;BME280;15572;48.810;9.148;2023-04-26T03:00:06;98191.59;;;5.44;100.00
28312;BME280;15572;48.810;9.148;2023-04-26T03:05:05;98185.84;;;5.31;100.00
28312;BME280;15572;48.810;9.148;2023-04-26T03:10:01;98186.81;;;5.22;100.00
28312;BME280;15572;48.810;9.148;2023-04-26T03:14:59;98191.31;;;5.14;100.00
28312;BME280;15572;48.810;9.148;2023-04-26T03:19:57;98197.50;;;5.06;100.00
28312;BME280;15572;48.810;9.148;2023-04-26T03:24:55;98191.28;;;5.05;100.00
28312;BME280;15572;48.810;9.148;2023-04-26T03:29:52;98190.75;;;4.94;100.00
28312;BME280;15572;48.810;9.148;2023-04-26T03:34:48;98197.75;;;4.87;100.00
28312;BME280;15572;48.810;9.148;2023-04-26T03:39:44;98192.84;;;4.74;100.00
28312;BME280;15572;48.810;9.148;2023-04-26T03:44:42;98188.03;;;4.60;100.00
28312;BME280;15572;48.810;9.148;2023-04-26T03:49:39;98190.53;;;4.53;100.00
28312;BME280;15572;48.810;9.148;2023-04-26T03:54:35;98192.03;;;4.48;100.00
28312;BME280;15572;48.810;9.148;2023-04-26T03:59:32;98197.31;;;4.40;100.00
28312;BME280;15572;48.810;9.148;2023-04-26T04:04:30;98201.16;;;4.37;100.00
28312;BME280;15572;48.810;9.148;2023-04-26T04:09:26;98195.63;;;4.39;100.00
28312;BME280;15572;48.810;9.148;2023-04-26T04:14:22;98191.28;;;4.38;100.00
28312;BME280;15572;48.810;9.148;2023-04-26T04:19:19;98191.22;;;4.30;100.00
28312;BME280;15572;48.810;9.148;2023-04-26T04:24:17;98190.47;;;4.19;100.00
28312;BME280;15572;48.810;9.148;2023-04-26T04:29:14;98197.44;;;4.12;100.00
28312;BME280;15572;48.810;9.148;2023-04-26T04:34:10;98201.59;;;4.07;100.00
28312;BME280;15572;48.810;9.148;2023-04-26T04:39:07;98208.03;;;4.14;100.00
28312;BME280;15572;48.810;9.148;2023-04-26T04:44:09;98208.25;;;4.20;100.00
28312;BME280;15572;48.810;9.148;2023-04-26T04:49:05;98207.25;;;4.21;100.00
28312;BME280;15572;48.810;9.148;2023-04-26T04:54:10;98209.25;;;4.19;100.00
28312;BME280;15572;48.810;9.148;2023-04-26T04:59:08;98218.63;;;4.23;100.00
28312;BME280;15572;48.810;9.148;2023-04-26T05:04:05;98227.75;;;4.31;100.00
28312;BME280;15572;48.810;9.148;2023-04-26T05:09:02;98231.56;;;4.28;100.00
28312;BME280;15572;48.810;9.148;2023-04-26T05:14:00;98237.31;;;4.33;100.00
28312;BME280;15572;48.810;9.148;2023-04-26T05:18:58;98239.47;;;4.30;100.00
28312;BME280;15572;48.810;9.148;2023-04-26T05:23:54;98245.19;;;4.35;100.00
28312;BME280;15572;48.810;9.148;2023-04-26T05:28:51;98252.63;;;4.41;100.00
28312;BME280;15572;48.810;9.148;2023-04-26T05:33:47;98256.25;;;4.57;100.00
28312;BME280;15572;48.810;9.148;2023-04-26T05:38:45;98252.94;;;4.63;100.00
28312;BME280;15572;48.810;9.148;2023-04-26T05:43:42;98263.72;;;4.72;100.00
28312;BME280;15572;48.810;9.148;2023-04-26T05:48:39;98258.41;;;4.80;100.00
28312;BME280;15572;48.810;9.148;2023-04-26T05:53:35;98263.97;;;4.86;100.00
28312;BME280;15572;48.810;9.148;2023-04-26T05:58:33;98266.59;;;5.04;100.00
28312;BME280;15572;48.810;9.148;2023-04-26T06:03:30;98268.50;;;5.20;100.00
28312;BME280;15572;48.810;9.148;2023-04-26T06:08:26;98261.50;;;5.35;100.00
28312;BME280;15572;48.810;9.148;2023-04-26T06:13:23;98268.63;;;5.44;100.00
28312;BME280;15572;48.810;9.148;2023-04-26T06:18:21;98265.63;;;5.55;100.00
28312;BME280;15572;48.810;9.148;2023-04-26T06:23:18;98274.69;;;5.62;100.00
28312;BME280;15572;48.810;9.148;2023-04-26T06:28:14;98282.47;;;5.73;100.00
28312;BME280;15572;48.810;9.148;2023-04-26T06:33:11;98284.50;;;5.79;100.00
28312;BME280;15572;48.810;9.148;2023-04-26T06:38:08;98287.06;;;5.89;100.00
28312;BME280;15572;48.810;9.148;2023-04-26T06:43:06;98283.22;;;6.00;100.00
28312;BME280;15572;48.810;9.148;2023-04-26T06:48:03;98289.97;;;6.12;100.00
28312;BME280;15572;48.810;9.148;2023-04-26T06:53:00;98284.09;;;6.24;100.00
28312;BME280;15572;48.810;9.148;2023-04-26T06:57:59;98288.31;;;6.35;100.00
28312;BME280;15572;48.810;9.148;2023-04-26T07:02:55;98276.34;;;6.54;100.00
28312;BME280;15572;48.810;9.148;2023-04-26T07:07:52;98270.47;;;6.66;100.00
28312;BME280;15572;48.810;9.148;2023-04-26T07:12:48;98272.28;;;6.74;100.00
28312;BME280;15572;48.810;9.148;2023-04-26T07:17:47;98269.94;;;6.79;100.00
28312;BME280;15572;48.810;9.148;2023-04-26T07:22:43;98268.09;;;6.80;100.00
28312;BME280;15572;48.810;9.148;2023-04-26T07:27:40;98260.00;;;6.80;100.00
28312;BME280;15572;48.810;9.148;2023-04-26T07:32:36;98263.34;;;6.90;100.00
28312;BME280;15572;48.810;9.148;2023-04-26T07:37:34;98255.59;;;7.03;99.25
28312;BME280;15572;48.810;9.148;2023-04-26T07:42:30;98252.53;;;7.14;97.80
28312;BME280;15572;48.810;9.148;2023-04-26T07:47:27;98259.03;;;7.28;93.55
28312;BME280;15572;48.810;9.148;2023-04-26T07:52:23;98254.72;;;7.49;93.15
28312;BME280;15572;48.810;9.148;2023-04-26T07:57:21;98265.59;;;7.64;87.02
28312;BME280;15572;48.810;9.148;2023-04-26T08:02:18;98266.88;;;7.84;85.00
28312;BME280;15572;48.810;9.148;2023-04-26T08:07:15;98265.19;;;7.83;82.22
28312;BME280;15572;48.810;9.148;2023-04-26T08:12:11;98259.69;;;7.99;83.06
28312;BME280;15572;48.810;9.148;2023-04-26T08:17:09;98267.25;;;8.27;79.81
28312;BME280;15572;48.810;9.148;2023-04-26T08:22:06;98270.94;;;8.71;79.86
28312;BME280;15572;48.810;9.148;2023-04-26T08:27:03;98285.97;;;9.03;80.13
28312;BME280;15572;48.810;9.148;2023-04-26T08:32:00;98272.56;;;9.24;74.97
28312;BME280;15572;48.810;9.148;2023-04-26T08:36:57;98274.34;;;9.32;69.68
28312;BME280;15572;48.810;9.148;2023-04-26T08:41:55;98275.66;;;9.07;67.59
28312;BME280;15572;48.810;9.148;2023-04-26T08:47:00;98272.69;;;9.31;69.60
28312;BME280;15572;48.810;9.148;2023-04-26T08:52:01;98282.47;;;9.17;69.37
28312;BME280;15572;48.810;9.148;2023-04-26T08:56:59;98275.84;;;9.20;66.86
28312;BME280;15572;48.810;9.148;2023-04-26T09:01:56;98272.56;;;9.54;66.79
28312;BME280;15572;48.810;9.148;2023-04-26T09:07:00;98276.94;;;10.05;67.11
28312;BME280;15572;48.810;9.148;2023-04-26T09:11:59;98267.50;;;10.16;64.59
28312;BME280;15572;48.810;9.148;2023-04-26T09:16:57;98265.78;;;10.15;66.09
28312;BME280;15572;48.810;9.148;2023-04-26T09:21:53;98270.22;;;10.16;67.71
28312;BME280;15572;48.810;9.148;2023-04-26T09:27:00;98264.63;;;10.18;65.40
28312;BME280;15572;48.810;9.148;2023-04-26T09:31:57;98264.44;;;10.04;64.40
28312;BME280;15572;48.810;9.148;2023-04-26T09:36:55;98254.41;;;9.98;61.55
28312;BME280;15572;48.810;9.148;2023-04-26T09:41:52;98255.34;;;10.27;62.75
28312;BME280;15572;48.810;9.148;2023-04-26T09:47:00;98252.22;;;10.08;60.42
28312;BME280;15572;48.810;9.148;2023-04-26T09:52:01;98253.09;;;10.15;60.48
28312;BME280;15572;48.810;9.148;2023-04-26T09:56:58;98253.56;;;10.34;60.71
28312;BME280;15572;48.810;9.148;2023-04-26T10:01:55;98248.88;;;10.70;59.73
28312;BME280;15572;48.810;9.148;2023-04-26T10:06:53;98251.22;;;11.08;59.92
28312;BME280;15572;48.810;9.148;2023-04-26T10:11:51;98235.69;;;11.57;59.02
28312;BME280;15572;48.810;9.148;2023-04-26T10:16:48;98231.69;;;12.07;58.90
28312;BME280;15572;48.810;9.148;2023-04-26T10:21:45;98231.94;;;12.26;59.26
28312;BME280;15572;48.810;9.148;2023-04-26T10:26:47;98232.59;;;12.67;54.13
28312;BME280;15572;48.810;9.148;2023-04-26T10:32:04;98227.19;;;12.60;53.59
28312;BME280;15572;48.810;9.148;2023-04-26T10:37:09;98229.66;;;12.16;50.34
28312;BME280;15572;48.810;9.148;2023-04-26T10:42:21;98226.84;;;11.83;52.25
28312;BME280;15572;48.810;9.148;2023-04-26T10:47:23;98224.63;;;11.59;51.75
28312;BME280;15572;48.810;9.148;2023-04-26T10:52:19;98218.63;;;11.29;51.65
28312;BME280;15572;48.810;9.148;2023-04-26T10:57:18;98206.72;;;11.23;53.33
28312;BME280;15572;48.810;9.148;2023-04-26T11:02:16;98211.81;;;10.98;53.77
28312;BME280;15572;48.810;9.148;2023-04-26T11:07:12;98210.66;;;11.62;53.94
28312;BME280;15572;48.810;9.148;2023-04-26T11:12:10;98211.25;;;11.51;52.88
28312;BME280;15572;48.810;9.148;2023-04-26T11:17:08;98215.53;;;11.32;54.35
28312;BME280;15572;48.810;9.148;2023-04-26T11:22:07;98210.91;;;11.26;51.77
28312;BME280;15572;48.810;9.148;2023-04-26T11:27:07;98184.31;;;12.10;52.41
28312;BME280;15572;48.810;9.148;2023-04-26T11:32:04;98174.34;;;12.50;50.78
28312;BME280;15572;48.810;9.148;2023-04-26T11:37:01;98169.66;;;13.09;48.14
28312;BME280;15572;48.810;9.148;2023-04-26T11:42:05;98168.16;;;13.40;46.93
28312;BME280;15572;48.810;9.148;2023-04-26T11:47:02;98157.78;;;12.97;46.67
28312;BME280;15572;48.810;9.148;2023-04-26T11:52:01;98155.13;;;12.64;46.95
28312;BME280;15572;48.810;9.148;2023-04-26T11:56:59;98144.25;;;12.64;47.67
28312;BME280;15572;48.810;9.148;2023-04-26T12:01:58;98145.72;;;12.60;46.54
28312;BME280;15572;48.810;9.148;2023-04-26T12:06:56;98150.75;;;13.41;44.71
28312;BME280;15572;48.810;9.148;2023-04-26T12:11:55;98146.81;;;13.37;44.33
28312;BME280;15572;48.810;9.148;2023-04-26T12:16:53;98142.06;;;13.64;44.94
28312;BME280;15572;48.810;9.148;2023-04-26T12:21:50;98137.56;;;14.20;45.01
28312;BME280;15572;48.810;9.148;2023-04-26T12:26:47;98134.25;;;15.77;43.33
28312;BME280;15572;48.810;9.148;2023-04-26T12:31:45;98127.50;;;17.09;41.64
28312;BME280;15572;48.810;9.148;2023-04-26T12:36:41;98117.63;;;18.33;35.85
28312;BME280;15572;48.810;9.148;2023-04-26T12:41:40;98125.56;;;17.10;37.15
28312;BME280;15572;48.810;9.148;2023-04-26T12:46:36;98122.84;;;15.32;40.11
28312;BME280;15572;48.810;9.148;2023-04-26T12:51:33;98110.50;;;16.08;39.58
28312;BME280;15572;48.810;9.148;2023-04-26T12:56:29;98109.66;;;16.95;37.30
28312;BME280;15572;48.810;9.148;2023-04-26T13:01:27;98105.63;;;16.74;36.93
28312;BME280;15572;48.810;9.148;2023-04-26T13:06:24;98101.22;;;16.97;36.76
28312;BME280;15572;48.810;9.148;2023-04-26T13:11:21;98107.09;;;16.24;38.14
28312;BME280;15572;48.810;9.148;2023-04-26T13:16:18;98101.66;;;16.47;38.95
28312;BME280;15572;48.810;9.148;2023-04-26T13:21:16;98093.50;;;17.45;38.06
28312;BME280;15572;48.810;9.148;2023-04-26T13:26:12;98094.28;;;16.36;37.44
28312;BME280;15572;48.810;9.148;2023-04-26T13:31:11;98082.09;;;17.77;37.56
28312;BME280;15572;48.810;9.148;2023-04-26T13:36:08;98081.84;;;18.90;34.59
28312;BME280;15572;48.810;9.148;2023-04-26T13:41:06;98090.00;;;18.35;37.39
28312;BME280;15572;48.810;9.148;2023-04-26T13:46:02;98080.75;;;18.07;37.99
28312;BME280;15572;48.810;9.148;2023-04-26T13:50:59;98091.53;;;17.29;39.02
28312;BME280;15572;48.810;9.148;2023-04-26T13:55:56;98084.41;;;16.35;38.81
28312;BME280;15572;48.810;9.148;2023-04-26T14:00:55;98086.28;;;15.22;40.87
28312;BME280;15572;48.810;9.148;2023-04-26T14:05:53;98079.53;;;14.88;41.53
28312;BME280;15572;48.810;9.148;2023-04-26T14:10:50;98084.38;;;15.04;43.29
28312;BME280;15572;48.810;9.148;2023-04-26T14:15:48;98074.81;;;15.13;41.69
28312;BME280;15572;48.810;9.148;2023-04-26T14:20:46;98062.44;;;15.65;42.95
28312;BME280;15572;48.810;9.148;2023-04-26T14:25:42;98070.28;;;15.73;43.36
28312;BME280;15572;48.810;9.148;2023-04-26T14:30:38;98058.41;;;15.49;44.65
28312;BME280;15572;48.810;9.148;2023-04-26T14:35:35;98066.81;;;15.00;43.70
28312;BME280;15572;48.810;9.148;2023-04-26T14:40:34;98066.13;;;15.04;43.60
28312;BME280;15572;48.810;9.148;2023-04-26T14:45:31;98064.47;;;14.85;44.60
28312;BME280;15572;48.810;9.148;2023-04-26T14:50:28;98070.75;;;14.86;45.46
28312;BME280;15572;48.810;9.148;2023-04-26T14:55:25;98073.16;;;14.57;45.10
28312;BME280;15572;48.810;9.148;2023-04-26T15:00:23;98071.88;;;14.78;45.39
28312;BME280;15572;48.810;9.148;2023-04-26T15:05:20;98074.31;;;15.04;45.95
28312;BME280;15572;48.810;9.148;2023-04-26T15:10:18;98072.38;;;14.50;44.62
28312;BME280;15572;48.810;9.148;2023-04-26T15:15:15;98070.19;;;14.34;45.71
28312;BME280;15572;48.810;9.148;2023-04-26T15:20:13;98061.59;;;14.12;44.31
28312;BME280;15572;48.810;9.148;2023-04-26T15:25:10;98055.53;;;14.10;45.87
28312;BME280;15572;48.810;9.148;2023-04-26T15:30:07;98052.38;;;13.88;46.14
28312;BME280;15572;48.810;9.148;2023-04-26T15:35:04;98045.84;;;13.89;46.71
28312;BME280;15572;48.810;9.148;2023-04-26T15:40:04;98043.41;;;13.81;45.27
28312;BME280;15572;48.810;9.148;2023-04-26T15:45:05;98045.63;;;13.66;46.95
28312;BME280;15572;48.810;9.148;2023-04-26T15:50:02;98046.34;;;13.80;47.99
28312;BME280;15572;48.810;9.148;2023-04-26T15:54:59;98041.97;;;13.79;48.02
28312;BME280;15572;48.810;9.148;2023-04-26T15:59:57;98043.53;;;13.93;47.89
28312;BME280;15572;48.810;9.148;2023-04-26T16:04:53;98041.69;;;14.12;46.45
28312;BME280;15572;48.810;9.148;2023-04-26T16:09:50;98032.94;;;14.10;46.20
28312;BME280;15572;48.810;9.148;2023-04-26T16:14:46;98047.56;;;14.15;46.53
28312;BME280;15572;48.810;9.148;2023-04-26T16:19:46;98040.16;;;13.98;45.48
28312;BME280;15572;48.810;9.148;2023-04-26T16:24:43;98041.25;;;13.90;45.03
28312;BME280;15572;48.810;9.148;2023-04-26T16:29:39;98038.09;;;13.93;46.11
28312;BME280;15572;48.810;9.148;2023-04-26T16:34:36;98044.22;;;14.13;44.20
28312;BME280;15572;48.810;9.148;2023-04-26T16:39:34;98041.78;;;13.74;44.56
28312;BME280;15572;48.810;9.148;2023-04-26T16:44:30;98039.50;;;13.39;45.81
28312;BME280;15572;48.810;9.148;2023-04-26T16:49:27;98041.22;;;13.34;46.10
28312;BME280;15572;48.810;9.148;2023-04-26T16:54:24;98048.81;;;13.19;48.47
28312;BME280;15572;48.810;9.148;2023-04-26T16:59:22;98037.81;;;12.94;46.83
28312;BME280;15572;48.810;9.148;2023-04-26T17:04:18;98049.13;;;12.91;46.96
28312;BME280;15572;48.810;9.148;2023-04-26T17:09:15;98050.66;;;12.67;47.75
28312;BME280;15572;48.810;9.148;2023-04-26T17:14:12;98055.88;;;12.55;47.98
28312;BME280;15572;48.810;9.148;2023-04-26T17:19:10;98049.22;;;12.45;48.31
28312;BME280;15572;48.810;9.148;2023-04-26T17:24:07;98061.38;;;12.36;48.32
28312;BME280;15572;48.810;9.148;2023-04-26T17:29:03;98062.63;;;12.33;48.74
28312;BME280;15572;48.810;9.148;2023-04-26T17:34:00;98058.88;;;12.28;49.04
28312;BME280;15572;48.810;9.148;2023-04-26T17:38:58;98068.91;;;12.20;48.44
28312;BME280;15572;48.810;9.148;2023-04-26T17:43:54;98071.81;;;12.19;48.47
28312;BME280;15572;48.810;9.148;2023-04-26T17:48:51;98076.22;;;12.27;48.51
28312;BME280;15572;48.810;9.148;2023-04-26T17:53:48;98076.41;;;12.25;48.52
28312;BME280;15572;48.810;9.148;2023-04-26T17:58:46;98083.31;;;12.01;48.75
28312;BME280;15572;48.810;9.148;2023-04-26T18:03:42;98076.59;;;11.77;48.19
28312;BME280;15572;48.810;9.148;2023-04-26T18:08:39;98082.38;;;11.61;48.69
28312;BME280;15572;48.810;9.148;2023-04-26T18:13:36;98091.53;;;11.47;48.58
28312;BME280;15572;48.810;9.148;2023-04-26T18:18:33;98096.53;;;11.37;49.07
28312;BME280;15572;48.810;9.148;2023-04-26T18:23:30;98103.94;;;11.22;49.55
28312;BME280;15572;48.810;9.148;2023-04-26T18:28:27;98101.81;;;11.04;49.83
28312;BME280;15572;48.810;9.148;2023-04-26T18:33:23;98098.41;;;10.95;49.18
28312;BME280;15572;48.810;9.148;2023-04-26T18:38:21;98110.66;;;10.78;51.00
28312;BME280;15572;48.810;9.148;2023-04-26T18:43:17;98130.53;;;10.64;51.32
28312;BME280;15572;48.810;9.148;2023-04-26T18:48:14;98128.84;;;10.57;51.68
28312;BME280;15572;48.810;9.148;2023-04-26T18:53:10;98129.06;;;10.62;50.89
28312;BME280;15572;48.810;9.148;2023-04-26T18:58:08;98136.34;;;10.61;51.05
28312;BME280;15572;48.810;9.148;2023-04-26T19:03:05;98135.09;;;10.57;51.29
28312;BME280;15572;48.810;9.148;2023-04-26T19:08:02;98136.06;;;10.49;52.39
28312;BME280;15572;48.810;9.148;2023-04-26T19:12:58;98153.72;;;10.45;53.19
28312;BME280;15572;48.810;9.148;2023-04-26T19:17:56;98151.22;;;10.44;53.79
28312;BME280;15572;48.810;9.148;2023-04-26T19:22:53;98156.63;;;10.44;53.33
28312;BME280;15572;48.810;9.148;2023-04-26T19:27:50;98164.50;;;10.39;53.90
28312;BME280;15572;48.810;9.148;2023-04-26T19:32:46;98168.63;;;10.35;53.70
28312;BME280;15572;48.810;9.148;2023-04-26T19:37:44;98166.28;;;10.25;54.53
28312;BME280;15572;48.810;9.148;2023-04-26T19:42:40;98176.00;;;10.20;55.57
28312;BME280;15572;48.810;9.148;2023-04-26T19:47:39;98187.19;;;10.17;56.37
28312;BME280;15572;48.810;9.148;2023-04-26T19:52:36;98188.59;;;10.12;57.02
28312;BME280;15572;48.810;9.148;2023-04-26T19:57:34;98181.38;;;9.98;59.39
28312;BME280;15572;48.810;9.148;2023-04-26T20:02:30;98184.59;;;9.87;60.46
28312;BME280;15572;48.810;9.148;2023-04-26T20:07:27;98185.38;;;9.81;61.06
28312;BME280;15572;48.810;9.148;2023-04-26T20:12:23;98186.31;;;9.73;63.51
28312;BME280;15572;48.810;9.148;2023-04-26T20:17:21;98199.97;;;9.65;66.54
28312;BME280;15572;48.810;9.148;2023-04-26T20:22:17;98200.19;;;9.49;66.52
28312;BME280;15572;48.810;9.148;2023-04-26T20:27:14;98189.41;;;9.35;65.00
28312;BME280;15572;48.810;9.148;2023-04-26T20:32:10;98191.94;;;9.21;63.78
28312;BME280;15572;48.810;9.148;2023-04-26T20:37:08;98187.66;;;9.12;65.63
28312;BME280;15572;48.810;9.148;2023-04-26T20:42:05;98188.56;;;9.05;66.83
28312;BME280;15572;48.810;9.148;2023-04-26T20:47:01;98187.47;;;8.99;68.41
28312;BME280;15572;48.810;9.148;2023-04-26T20:51:58;98197.31;;;8.92;70.38
28312;BME280;15572;48.810;9.148;2023-04-26T20:56:56;98191.56;;;8.80;75.75
28312;BME280;15572;48.810;9.148;2023-04-26T21:01:52;98194.34;;;8.58;75.27
28312;BME280;15572;48.810;9.148;2023-04-26T21:06:48;98190.78;;;8.42;73.47
28312;BME280;15572;48.810;9.148;2023-04-26T21:11:45;98191.84;;;8.33;74.41
28312;BME280;15572;48.810;9.148;2023-04-26T21:16:43;98192.28;;;8.22;79.07
28312;BME280;15572;48.810;9.148;2023-04-26T21:21:39;98189.28;;;8.17;80.73
28312;BME280;15572;48.810;9.148;2023-04-26T21:26:36;98193.88;;;8.09;84.56
28312;BME280;15572;48.810;9.148;2023-04-26T21:31:32;98184.84;;;8.01;84.81
28312;BME280;15572;48.810;9.148;2023-04-26T21:36:30;98193.69;;;7.95;85.66
28312;BME280;15572;48.810;9.148;2023-04-26T21:41:26;98185.09;;;7.92;85.76
28312;BME280;15572;48.810;9.148;2023-04-26T21:46:23;98184.16;;;7.85;86.60
28312;BME280;15572;48.810;9.148;2023-04-26T21:51:20;98192.44;;;7.75;88.20
28312;BME280;15572;48.810;9.148;2023-04-26T21:56:18;98187.78;;;7.69;84.67
28312;BME280;15572;48.810;9.148;2023-04-26T22:01:14;98187.78;;;7.69;83.29
28312;BME280;15572;48.810;9.148;2023-04-26T22:06:11;98196.53;;;7.71;83.63
28312;BME280;15572;48.810;9.148;2023-04-26T22:11:07;98199.50;;;7.76;86.23
28312;BME280;15572;48.810;9.148;2023-04-26T22:16:06;98195.97;;;7.76;88.24
28312;BME280;15572;48.810;9.148;2023-04-26T22:21:02;98191.81;;;7.73;89.24
28312;BME280;15572;48.810;9.148;2023-04-26T22:25:59;98192.34;;;7.69;90.48
28312;BME280;15572;48.810;9.148;2023-04-26T22:30:55;98197.94;;;7.59;91.45
28312;BME280;15572;48.810;9.148;2023-04-26T22:35:53;98203.47;;;7.66;91.45
28312;BME280;15572;48.810;9.148;2023-04-26T22:40:52;98202.63;;;7.65;92.43
28312;BME280;15572;48.810;9.148;2023-04-26T22:45:48;98193.53;;;7.66;92.14
28312;BME280;15572;48.810;9.148;2023-04-26T22:50:47;98197.94;;;7.59;93.59
28312;BME280;15572;48.810;9.148;2023-04-26T22:55:44;98204.75;;;7.47;93.01
28312;BME280;15572;48.810;9.148;2023-04-26T23:00:41;98204.94;;;7.37;92.17
28312;BME280;15572;48.810;9.148;2023-04-26T23:05:37;98210.34;;;7.37;88.77
28312;BME280;15572;48.810;9.148;2023-04-26T23:10:34;98210.00;;;7.40;90.08
28312;BME280;15572;48.810;9.148;2023-04-26T23:15:32;98222.09;;;7.44;90.90
28312;BME280;15572;48.810;9.148;2023-04-26T23:20:28;98221.09;;;7.45;91.89
28312;BME280;15572;48.810;9.148;2023-04-26T23:25:25;98219.06;;;7.47;92.71
28312;BME280;15572;48.810;9.148;2023-04-26T23:30:21;98207.78;;;7.44;98.23
28312;BME280;15572;48.810;9.148;2023-04-26T23:35:19;98209.16;;;7.40;97.52
28312;BME280;15572;48.810;9.148;2023-04-26T23:40:16;98215.25;;;7.34;99.89
28312;BME280;15572;48.810;9.148;2023-04-26T23:45:12;98209.25;;;7.24;97.42
28312;BME280;15572;48.810;9.148;2023-04-26T23:50:09;98210.94;;;7.16;94.98
28312;BME280;15572;48.810;9.148;2023-04-26T23:55:08;98214.53;;;7.09;90.77
